Time;durP1;ratioP1;P1;durP2;ratioP2;P2;SDS_P1;SDS_P2;PMS_P1;PMS_P2;Temp;Humidity;BMP_temperature;BMP_pressure;BME280_temperature;BME280_humidity;BME280_pressure;Samples;Min_cycle;Max_cycle;Signal;HPM_P1;HPM_P2
2023/08/24 00:00:13;;;;;;;4.60;2.72;;;18.00;99.90;;;;;;5040474;28;20063;-66
2023/08/24 00:02:38;;;;;;;5.03;2.47;;;18.00;99.90;;;;;;5046319;28;20036;-65
2023/08/24 00:05:05;;;;;;;3.22;2.58;;;18.00;99.90;;;;;;5043894;28;20475;-65
2023/08/24 00:07:32;;;;;;;3.58;2.35;;;18.00;99.90;;;;;;5052770;28;20060;-66
2023/08/24 00:09:58;;;;;;;3.40;2.30;;;17.90;99.90;;;;;;5051877;28;20067;-65
2023/08/24 00:12:23;;;;;;;4.78;2.58;;;17.90;99.90;;;;;;5050796;28;20048;-65
2023/08/24 00:14:49;;;;;;;4.85;2.35;;;17.90;99.90;;;;;;5054737;28;20033;-66
2023/08/24 00:17:14;;;;;;;5.72;2.30;;;17.90;99.90;;;;;;5043619;28;20406;-65
2023/08/24 00:19:40;;;;;;;3.40;2.70;;;17.90;99.90;;;;;;5053019;28;20064;-65
2023/08/24 00:22:06;;;;;;;3.33;2.92;;;17.80;99.90;;;;;;5046912;28;20044;-65
2023/08/24 00:24:31;;;;;;;3.08;2.72;;;17.70;99.90;;;;;;5048582;28;20055;-65
2023/08/24 00:26:57;;;;;;;3.97;2.60;;;17.70;99.90;;;;;;5041292;28;20044;-66
2023/08/24 00:29:22;;;;;;;3.63;2.60;;;17.60;99.90;;;;;;5047980;28;20041;-66
2023/08/24 00:31:48;;;;;;;4.88;3.20;;;17.50;99.90;;;;;;5044824;28;20029;-65
2023/08/24 00:34:14;;;;;;;3.67;2.80;;;17.50;99.90;;;;;;5053977;28;20028;-65
2023/08/24 00:36:40;;;;;;;3.63;2.67;;;17.50;99.90;;;;;;5047321;28;20059;-65
2023/08/24 00:39:06;;;;;;;3.60;2.78;;;17.50;99.90;;;;;;5057855;28;20041;-66
2023/08/24 00:41:32;;;;;;;3.10;2.75;;;17.40;99.90;;;;;;5051295;28;20146;-65
2023/08/24 00:43:57;;;;;;;2.67;2.10;;;17.30;99.90;;;;;;5047201;28;20033;-66
2023/08/24 00:46:26;;;;;;;3.63;2.67;;;17.30;99.90;;;;;;5069718;22;20048;-66
2023/08/24 00:48:56;;;;;;;3.22;2.90;;;17.30;99.90;;;;;;5063949;28;20050;-66
2023/08/24 00:51:24;;;;;;;4.68;2.80;;;17.20;99.90;;;;;;5071277;28;20039;-65
2023/08/24 00:53:50;;;;;;;2.45;2.25;;;17.20;99.90;;;;;;5068044;28;20033;-66
2023/08/24 00:56:15;;;;;;;3.40;3.10;;;17.20;99.90;;;;;;5063894;28;20102;-65
2023/08/24 00:58:42;;;;;;;3.17;2.60;;;17.20;99.90;;;;;;5051648;28;20518;-66
2023/08/24 01:01:08;;;;;;;3.30;3.00;;;17.20;99.90;;;;;;5053228;28;20538;-66
2023/08/24 01:03:33;;;;;;;3.55;2.90;;;17.20;99.90;;;;;;5056744;28;20132;-65
2023/08/24 01:05:59;;;;;;;3.95;3.05;;;17.10;99.90;;;;;;5051128;28;20041;-66
2023/08/24 01:08:25;;;;;;;4.10;3.00;;;17.10;99.90;;;;;;5050815;28;20037;-65
2023/08/24 01:11:10;;;;;;;4.82;3.47;;;17.10;99.90;;;;;;5051312;28;20078;-66
2023/08/24 01:13:51;;;;;;;3.28;2.97;;;17.10;99.90;;;;;;5061687;28;20094;-65
2023/08/24 01:16:26;;;;;;;5.53;3.58;;;17.20;99.90;;;;;;5071561;28;20083;-66
2023/08/24 01:18:59;;;;;;;4.40;3.67;;;17.20;99.90;;;;;;5055763;28;20032;-65
2023/08/24 01:21:26;;;;;;;4.00;2.60;;;17.20;99.90;;;;;;5050322;28;20372;-65
2023/08/24 01:24:13;;;;;;;3.20;2.85;;;17.20;99.90;;;;;;5041133;28;20037;-65
2023/08/24 01:26:41;;;;;;;5.82;3.10;;;17.20;99.90;;;;;;5051777;28;20037;-66
2023/08/24 01:29:07;;;;;;;5.55;3.20;;;17.20;99.90;;;;;;5049250;28;20044;-65
2023/08/24 01:31:33;;;;;;;3.70;3.28;;;17.20;99.90;;;;;;5044748;28;20034;-66
2023/08/24 01:33:59;;;;;;;7.43;3.60;;;17.10;99.90;;;;;;5035672;28;20080;-66
2023/08/24 01:36:25;;;;;;;4.65;3.17;;;17.20;99.90;;;;;;5051117;28;20487;-65
2023/08/24 01:39:23;;;;;;;3.30;3.00;;;17.20;99.90;;;;;;5051308;28;20051;-65
2023/08/24 01:41:51;;;;;;;4.05;3.25;;;17.20;99.90;;;;;;5046770;28;20052;-65
2023/08/24 01:44:21;;;;;;;5.18;3.60;;;17.20;99.90;;;;;;5049218;28;20546;-66
2023/08/24 01:46:49;;;;;;;4.88;3.47;;;17.20;99.90;;;;;;5052176;28;20037;-66
2023/08/24 01:49:17;;;;;;;6.65;3.53;;;17.30;99.90;;;;;;5044281;28;20040;-66
2023/08/24 01:51:44;;;;;;;6.10;4.30;;;17.20;99.90;;;;;;5050873;28;20036;-65
2023/08/24 01:54:10;;;;;;;5.72;3.90;;;17.30;99.90;;;;;;5050387;28;20400;-66
2023/08/24 01:56:35;;;;;;;7.80;4.47;;;17.20;99.90;;;;;;5050536;28;20037;-66
2023/08/24 01:59:01;;;;;;;6.82;4.63;;;17.20;99.90;;;;;;5050728;28;20040;-65
2023/08/24 02:01:27;;;;;;;4.82;4.20;;;17.20;99.90;;;;;;5048388;28;20047;-65
2023/08/24 02:03:52;;;;;;;7.47;5.15;;;17.20;99.90;;;;;;5050109;28;20036;-65
2023/08/24 02:06:18;;;;;;;7.05;5.25;;;17.30;99.90;;;;;;5055416;28;20046;-65
2023/08/24 02:08:44;;;;;;;8.85;6.13;;;17.30;99.90;;;;;;5054401;28;20072;-66
2023/08/24 02:11:10;;;;;;;8.25;5.40;;;17.30;99.90;;;;;;5043994;28;20091;-66
2023/08/24 02:13:36;;;;;;;7.82;5.88;;;17.40;99.90;;;;;;5054463;28;20033;-66
2023/08/24 02:16:06;;;;;;;9.35;5.60;;;17.40;99.90;;;;;;5060832;28;20040;-66
2023/08/24 02:18:32;;;;;;;8.85;5.13;;;17.50;99.90;;;;;;5051223;28;20495;-66
2023/08/24 02:20:58;;;;;;;8.40;6.00;;;17.50;99.90;;;;;;5058109;28;20553;-66
2023/08/24 02:23:23;;;;;;;9.75;6.07;;;17.50;99.90;;;;;;5062929;28;20040;-66
2023/08/24 02:25:49;;;;;;;9.10;6.07;;;17.40;99.90;;;;;;5064417;28;20048;-66
2023/08/24 02:28:14;;;;;;;6.65;5.82;;;17.50;99.90;;;;;;5051526;28;20024;-66
2023/08/24 02:30:40;;;;;;;8.88;6.38;;;17.50;99.90;;;;;;5051061;28;20376;-66
2023/08/24 02:33:06;;;;;;;10.40;6.93;;;17.50;99.90;;;;;;5049343;28;20028;-66
2023/08/24 02:35:31;;;;;;;8.57;6.35;;;17.50;99.90;;;;;;5048755;28;20064;-66
2023/08/24 02:37:57;;;;;;;10.13;6.40;;;17.50;99.90;;;;;;5050169;28;20079;-66
2023/08/24 02:40:23;;;;;;;9.43;5.93;;;17.60;99.90;;;;;;5049833;28;20033;-66
2023/08/24 02:42:49;;;;;;;14.27;7.07;;;17.50;99.90;;;;;;5050177;28;20064;-66
2023/08/24 02:45:14;;;;;;;10.02;6.38;;;17.50;99.90;;;;;;5063639;28;20047;-66
2023/08/24 02:47:40;;;;;;;8.38;5.97;;;17.50;99.90;;;;;;5050636;28;20163;-66
2023/08/24 02:50:06;;;;;;;9.98;6.95;;;17.50;99.90;;;;;;5050014;28;20045;-66
2023/08/24 02:52:32;;;;;;;9.73;6.88;;;17.50;99.90;;;;;;5050643;28;20121;-66
2023/08/24 02:54:58;;;;;;;9.90;6.82;;;17.40;99.90;;;;;;5067292;28;20060;-66
2023/08/24 02:57:24;;;;;;;9.23;6.70;;;17.40;99.90;;;;;;5050151;28;20398;-66
2023/08/24 02:59:49;;;;;;;10.20;6.28;;;17.50;99.90;;;;;;5050761;28;20037;-66
2023/08/24 03:02:15;;;;;;;9.80;6.03;;;17.50;99.90;;;;;;5050346;28;20426;-66
2023/08/24 03:04:41;;;;;;;7.93;5.80;;;17.50;99.90;;;;;;5055151;28;20037;-66
2023/08/24 03:07:08;;;;;;;8.48;5.65;;;17.50;99.90;;;;;;5055073;28;20070;-66
2023/08/24 03:09:36;;;;;;;9.10;6.63;;;17.50;99.90;;;;;;5050389;28;20123;-66
2023/08/24 03:12:02;;;;;;;8.77;6.35;;;17.50;99.90;;;;;;5048732;28;20068;-66
2023/08/24 03:14:29;;;;;;;11.30;6.35;;;17.50;99.90;;;;;;5048427;28;20475;-66
2023/08/24 03:16:54;;;;;;;9.43;6.63;;;17.60;99.90;;;;;;5050163;28;20059;-66
2023/08/24 03:19:20;;;;;;;12.30;6.45;;;17.50;99.90;;;;;;5062514;28;20032;-66
2023/08/24 03:21:45;;;;;;;10.77;7.20;;;17.60;99.90;;;;;;5065928;28;20040;-66
2023/08/24 03:24:11;;;;;;;11.20;5.97;;;17.50;99.90;;;;;;5057050;28;20425;-66
2023/08/24 03:26:37;;;;;;;10.10;6.25;;;17.50;99.90;;;;;;5048988;28;20044;-66
2023/08/24 03:29:02;;;;;;;9.02;6.28;;;17.40;99.90;;;;;;5050931;28;20555;-66
2023/08/24 03:31:28;;;;;;;10.30;6.57;;;17.40;99.90;;;;;;5049450;28;20071;-66
2023/08/24 03:33:54;;;;;;;9.50;7.03;;;17.40;99.90;;;;;;5044092;28;20045;-66
2023/08/24 03:36:20;;;;;;;9.18;6.57;;;17.40;99.90;;;;;;5047820;28;20035;-66
2023/08/24 03:38:46;;;;;;;12.50;7.28;;;17.40;99.90;;;;;;5048329;28;20371;-66
2023/08/24 03:41:11;;;;;;;11.55;7.70;;;17.40;99.90;;;;;;5053095;28;20075;-66
2023/08/24 03:43:37;;;;;;;8.90;6.32;;;17.40;99.90;;;;;;5050104;28;20029;-66
2023/08/24 03:46:05;;;;;;;15.07;7.95;;;17.30;99.90;;;;;;5051200;28;20041;-65
2023/08/24 03:48:31;;;;;;;10.05;7.25;;;17.30;99.90;;;;;;5048274;28;20037;-66
2023/08/24 03:50:57;;;;;;;10.85;7.00;;;17.30;99.90;;;;;;5046924;28;20033;-66
2023/08/24 03:53:23;;;;;;;10.57;7.20;;;17.20;99.90;;;;;;5060941;28;20509;-66
2023/08/24 03:55:54;;;;;;;9.88;7.10;;;17.10;99.90;;;;;;5051414;28;20055;-66
2023/08/24 03:58:20;;;;;;;11.00;6.70;;;17.10;99.90;;;;;;5045243;28;20029;-65
2023/08/24 04:00:46;;;;;;;12.48;7.18;;;17.10;99.90;;;;;;5047581;28;20048;-66
2023/08/24 04:03:12;;;;;;;8.90;7.25;;;17.10;99.90;;;;;;5049912;28;20060;-66
2023/08/24 04:05:38;;;;;;;9.57;7.40;;;17.00;99.90;;;;;;5064550;28;20048;-66
2023/08/24 04:08:04;;;;;;;9.68;7.88;;;17.00;99.90;;;;;;5049223;28;20402;-66
2023/08/24 04:10:30;;;;;;;9.73;7.82;;;17.00;99.90;;;;;;5043070;28;20503;-66
2023/08/24 04:12:56;;;;;;;12.43;7.63;;;17.00;99.90;;;;;;5046642;28;20395;-65
2023/08/24 04:15:22;;;;;;;9.65;7.20;;;16.90;99.90;;;;;;5051338;28;20025;-66
2023/08/24 04:17:48;;;;;;;13.20;8.20;;;17.00;99.90;;;;;;5048797;28;20041;-65
2023/08/24 04:20:14;;;;;;;8.93;7.53;;;16.90;99.90;;;;;;5048368;28;20029;-65
2023/08/24 04:22:40;;;;;;;9.85;6.97;;;16.90;99.90;;;;;;5051388;28;20395;-66
2023/08/24 04:25:06;;;;;;;9.70;7.32;;;16.90;99.90;;;;;;5067646;28;20040;-65
2023/08/24 04:27:32;;;;;;;11.13;7.70;;;16.80;99.90;;;;;;5058911;28;20032;-65
2023/08/24 04:29:58;;;;;;;10.75;8.00;;;16.80;99.90;;;;;;5052261;28;20047;-65
2023/08/24 04:32:24;;;;;;;9.93;7.53;;;16.70;99.90;;;;;;5044559;28;20047;-65
2023/08/24 04:34:49;;;;;;;8.65;7.70;;;16.70;99.90;;;;;;5044415;28;20033;-66
2023/08/24 04:37:15;;;;;;;11.30;7.68;;;16.70;99.90;;;;;;5050927;28;20398;-66
2023/08/24 04:39:41;;;;;;;10.68;7.45;;;16.70;99.90;;;;;;5046836;28;20102;-66
2023/08/24 04:42:06;;;;;;;9.70;7.63;;;16.60;99.90;;;;;;5049624;28;22002;-65
2023/08/24 04:44:33;;;;;;;10.48;7.47;;;16.60;99.90;;;;;;5047140;28;20033;-65
2023/08/24 04:46:58;;;;;;;11.13;8.27;;;16.70;99.90;;;;;;5048292;28;20033;-65
2023/08/24 04:49:24;;;;;;;10.75;7.53;;;16.60;99.90;;;;;;5048550;28;20033;-66
2023/08/24 04:51:49;;;;;;;12.50;7.60;;;16.60;99.90;;;;;;5049256;28;20029;-66
2023/08/24 04:54:15;;;;;;;8.95;7.40;;;16.60;99.90;;;;;;5044516;28;20033;-65
2023/08/24 04:56:41;;;;;;;10.88;7.30;;;16.60;99.90;;;;;;5047084;28;20033;-65
2023/08/24 04:59:07;;;;;;;11.00;7.43;;;16.60;99.90;;;;;;5048392;28;20076;-66
2023/08/24 05:01:34;;;;;;;11.20;7.20;;;16.50;99.90;;;;;;5044701;28;20044;-65
2023/08/24 05:04:00;;;;;;;12.07;7.63;;;16.50;99.90;;;;;;5049242;28;20025;-66
2023/08/24 05:06:26;;;;;;;11.13;7.38;;;16.50;99.90;;;;;;5046715;28;20109;-65
2023/08/24 05:08:51;;;;;;;9.63;7.20;;;16.50;99.90;;;;;;5045980;28;20037;-65
2023/08/24 05:11:20;;;;;;;9.48;7.35;;;16.60;99.90;;;;;;5043912;28;20040;-66
2023/08/24 05:13:45;;;;;;;8.63;6.72;;;16.60;99.90;;;;;;5043082;28;20772;-65
2023/08/24 05:16:12;;;;;;;9.90;7.50;;;16.60;99.90;;;;;;5025600;28;20158;-66
2023/08/24 05:18:38;;;;;;;11.32;8.23;;;16.60;99.90;;;;;;5038433;28;20029;-65
2023/08/24 05:21:04;;;;;;;11.10;7.60;;;16.70;99.90;;;;;;5052920;28;20103;-65
2023/08/24 05:23:31;;;;;;;11.82;7.65;;;16.70;99.90;;;;;;5051464;28;20063;-66
2023/08/24 05:25:57;;;;;;;11.95;7.88;;;16.70;99.90;;;;;;5060947;28;20415;-65
2023/08/24 05:28:27;;;;;;;10.45;7.10;;;16.80;99.90;;;;;;5061704;28;20036;-65
2023/08/24 05:30:53;;;;;;;11.93;7.13;;;16.80;99.90;;;;;;5057977;28;20088;-66
2023/08/24 05:33:21;;;;;;;10.20;6.80;;;16.90;99.90;;;;;;5050641;28;20065;-65
2023/08/24 05:35:47;;;;;;;12.10;7.50;;;17.00;99.90;;;;;;5059948;28;20025;-66
2023/08/24 05:38:14;;;;;;;9.93;6.93;;;17.10;99.90;;;;;;5040940;28;20313;-66
2023/08/24 05:40:41;;;;;;;11.43;7.03;;;17.10;99.90;;;;;;5056246;28;20045;-66
2023/08/24 05:43:06;;;;;;;13.75;7.13;;;17.20;99.90;;;;;;5058353;28;20468;-66
2023/08/24 05:45:32;;;;;;;9.57;7.43;;;17.20;99.90;;;;;;5072077;28;20036;-66
2023/08/24 05:47:58;;;;;;;11.50;6.70;;;17.30;99.90;;;;;;5040852;28;20467;-66
2023/08/24 05:50:24;;;;;;;9.98;6.63;;;17.30;99.90;;;;;;5050054;28;20029;-66
2023/08/24 05:52:49;;;;;;;7.88;6.50;;;17.30;99.90;;;;;;5047016;28;20064;-66
2023/08/24 05:55:15;;;;;;;11.15;6.57;;;17.30;99.90;;;;;;5049921;28;20526;-66
2023/08/24 05:57:41;;;;;;;11.68;6.60;;;17.40;99.90;;;;;;5033255;28;20435;-66
2023/08/24 06:00:10;;;;;;;8.43;6.50;;;17.40;99.90;;;;;;5051964;28;20037;-66
2023/08/24 06:02:37;;;;;;;9.00;6.03;;;17.40;99.90;;;;;;5043297;28;20037;-66
2023/08/24 06:05:03;;;;;;;11.15;6.43;;;17.50;99.90;;;;;;5050162;28;20041;-65
2023/08/24 06:07:29;;;;;;;10.38;6.88;;;17.50;99.90;;;;;;5053179;28;20112;-65
2023/08/24 06:09:56;;;;;;;9.13;6.82;;;17.60;99.90;;;;;;5049445;28;20033;-66
2023/08/24 06:12:22;;;;;;;9.88;6.70;;;17.70;99.90;;;;;;5058256;28;20390;-66
2023/08/24 06:14:47;;;;;;;11.18;7.13;;;17.70;99.90;;;;;;5031575;28;20048;-66
2023/08/24 06:17:13;;;;;;;10.25;7.05;;;17.70;99.90;;;;;;5043741;28;20024;-66
2023/08/24 06:19:39;;;;;;;8.82;6.32;;;17.80;99.90;;;;;;5053517;28;20033;-66
2023/08/24 06:22:05;;;;;;;12.40;6.38;;;17.90;99.90;;;;;;5052137;28;20556;-65
2023/08/24 06:24:31;;;;;;;11.55;6.75;;;18.00;99.90;;;;;;5050454;28;20441;-66
2023/08/24 06:26:56;;;;;;;12.32;7.47;;;18.00;99.90;;;;;;5049876;28;20047;-66
2023/08/24 06:29:22;;;;;;;11.05;6.50;;;18.10;99.90;;;;;;5050833;28;20097;-66
2023/08/24 06:31:47;;;;;;;11.95;7.40;;;18.20;99.90;;;;;;5050370;28;20402;-66
2023/08/24 06:34:13;;;;;;;10.57;6.95;;;18.20;99.90;;;;;;5041034;28;20043;-66
2023/08/24 06:36:39;;;;;;;11.63;7.65;;;18.40;99.90;;;;;;5038351;28;20109;-66
2023/08/24 06:39:05;;;;;;;14.40;8.25;;;18.50;99.90;;;;;;5039398;28;20045;-65
2023/08/24 06:41:35;;;;;;;10.30;8.25;;;18.70;99.90;;;;;;5047640;28;20079;-65
2023/08/24 06:44:01;;;;;;;14.93;9.60;;;18.90;99.90;;;;;;5056985;28;20434;-66
2023/08/24 06:46:26;;;;;;;16.77;9.60;;;19.00;99.90;;;;;;5073726;22;20490;-64
2023/08/24 06:48:52;;;;;;;14.88;9.85;;;19.10;99.90;;;;;;5059629;28;20035;-64
2023/08/24 06:51:17;;;;;;;16.98;9.57;;;19.20;99.90;;;;;;5069112;28;20028;-64
2023/08/24 06:53:43;;;;;;;17.38;10.52;;;19.20;99.90;;;;;;5069146;28;20115;-64
2023/08/24 06:56:09;;;;;;;15.93;11.35;;;19.20;99.90;;;;;;5071181;28;20029;-68
2023/08/24 06:58:35;;;;;;;17.55;10.60;;;19.30;99.90;;;;;;5071131;28;20044;-68
2023/08/24 07:01:05;;;;;;;18.00;10.88;;;19.40;99.90;;;;;;5079259;28;20040;-68
2023/08/24 07:03:32;;;;;;;15.43;10.30;;;19.50;99.90;;;;;;5068021;28;20048;-68
2023/08/24 07:05:58;;;;;;;18.70;11.02;;;19.60;99.90;;;;;;5062800;28;20045;-68
2023/08/24 07:08:24;;;;;;;15.95;10.40;;;19.60;99.90;;;;;;5052531;28;20402;-68
2023/08/24 07:10:50;;;;;;;16.88;10.95;;;19.70;99.90;;;;;;5059379;28;20037;-67
2023/08/24 07:13:15;;;;;;;14.95;10.02;;;19.70;99.90;;;;;;5056903;28;20047;-68
2023/08/24 07:15:42;;;;;;;17.55;10.40;;;19.90;99.90;;;;;;5071752;28;20028;-68
2023/08/24 07:18:08;;;;;;;18.77;9.93;;;20.00;99.90;;;;;;5072099;28;20033;-68
2023/08/24 07:20:35;;;;;;;14.27;9.60;;;20.10;99.90;;;;;;5071413;28;20501;-68
2023/08/24 07:23:01;;;;;;;16.13;10.07;;;20.20;99.90;;;;;;5072437;28;20437;-68
2023/08/24 07:25:29;;;;;;;15.10;9.77;;;20.30;99.90;;;;;;5068644;28;20040;-68
2023/08/24 07:27:59;;;;;;;16.88;9.65;;;20.40;99.90;;;;;;5071560;28;20036;-69
2023/08/24 07:30:28;;;;;;;14.20;10.20;;;20.40;99.90;;;;;;5069696;28;20459;-68
2023/08/24 07:32:54;;;;;;;15.65;9.23;;;20.50;99.90;;;;;;5067643;28;20120;-68
2023/08/24 07:35:20;;;;;;;13.65;9.35;;;20.60;99.90;;;;;;5073008;28;20581;-68
2023/08/24 07:37:49;;;;;;;15.27;9.55;;;20.60;99.90;;;;;;5077908;28;20039;-69
2023/08/24 07:40:15;;;;;;;13.57;9.38;;;20.70;99.90;;;;;;5074257;28;20429;-68
2023/08/24 07:42:50;;;;;;;13.75;8.93;;;20.90;99.90;;;;;;5073296;28;20029;-68
2023/08/24 07:45:16;;;;;;;16.55;9.55;;;21.00;99.90;;;;;;5060301;28;20057;-68
2023/08/24 07:47:43;;;;;;;14.68;8.60;;;21.10;99.90;;;;;;5062686;28;20036;-68
2023/08/24 07:50:10;;;;;;;13.27;9.60;;;21.30;99.90;;;;;;5069004;28;20044;-68
2023/08/24 07:52:37;;;;;;;12.48;9.23;;;21.40;99.90;;;;;;5071266;28;20156;-68
2023/08/24 07:55:04;;;;;;;14.45;9.93;;;21.40;99.90;;;;;;5058461;28;20094;-68
2023/08/24 07:57:31;;;;;;;13.77;8.88;;;21.50;99.90;;;;;;5055044;28;20043;-68
2023/08/24 07:59:57;;;;;;;15.02;9.68;;;21.60;99.90;;;;;;5073149;28;20120;-68
2023/08/24 08:02:23;;;;;;;15.20;9.77;;;21.70;99.90;;;;;;5071831;28;20044;-68
2023/08/24 08:04:48;;;;;;;17.60;10.48;;;21.80;99.90;;;;;;5074540;28;20036;-69
2023/08/24 08:07:14;;;;;;;13.10;9.18;;;21.80;99.90;;;;;;5070561;28;20134;-69
2023/08/24 08:09:40;;;;;;;14.90;9.77;;;22.00;99.90;;;;;;5075605;28;20037;-69
2023/08/24 08:12:06;;;;;;;11.45;9.13;;;22.00;99.90;;;;;;5071127;28;20089;-69
2023/08/24 08:14:31;;;;;;;14.80;10.20;;;22.20;99.90;;;;;;5080236;28;20036;-70
2023/08/24 08:16:57;;;;;;;17.20;9.40;;;22.20;99.90;;;;;;5064186;28;20104;-70
2023/08/24 08:19:25;;;;;;;13.38;8.88;;;22.30;99.90;;;;;;5053374;28;20048;-69
2023/08/24 08:21:50;;;;;;;15.25;8.95;;;22.50;99.90;;;;;;5069127;28;20033;-68
2023/08/24 08:24:16;;;;;;;13.68;9.35;;;22.60;99.90;;;;;;5072872;28;20036;-69
2023/08/24 08:26:42;;;;;;;14.20;8.90;;;22.60;99.90;;;;;;5072718;28;20032;-69
2023/08/24 08:29:07;;;;;;;13.35;9.07;;;22.70;99.90;;;;;;5069886;28;20102;-69
2023/08/24 08:31:33;;;;;;;15.27;9.10;;;22.80;99.90;;;;;;5074790;28;20107;-70
2023/08/24 08:33:59;;;;;;;15.07;10.18;;;22.90;99.90;;;;;;5074219;28;20487;-70
2023/08/24 08:36:24;;;;;;;16.90;10.23;;;23.00;99.90;;;;;;5067113;28;20136;-70
2023/08/24 08:38:50;;;;;;;13.60;9.90;;;23.00;99.90;;;;;;5077143;28;20101;-70
2023/08/24 08:41:21;;;;;;;13.73;8.98;;;23.00;99.90;;;;;;5072158;28;20036;-69
2023/08/24 08:43:48;;;;;;;13.02;9.20;;;23.10;99.90;;;;;;5065344;28;20042;-70
2023/08/24 08:46:16;;;;;;;15.90;9.88;;;23.10;99.90;;;;;;5064432;28;20029;-70
2023/08/24 08:48:43;;;;;;;11.05;8.63;;;23.30;99.90;;;;;;5080127;28;20390;-70
2023/08/24 08:51:10;;;;;;;14.82;8.75;;;23.40;99.90;;;;;;5072547;28;20135;-70
2023/08/24 08:53:36;;;;;;;14.55;8.45;;;23.50;99.90;;;;;;5080219;28;20032;-70
2023/08/24 08:56:03;;;;;;;11.73;8.20;;;23.60;99.90;;;;;;5073866;28;20028;-70
2023/08/24 08:58:31;;;;;;;14.13;8.48;;;23.70;99.90;;;;;;5066726;28;20130;-70
2023/08/24 09:00:59;;;;;;;11.80;8.45;;;23.80;99.90;;;;;;5069738;28;20069;-71
2023/08/24 09:03:28;;;;;;;12.68;8.27;;;23.90;99.90;;;;;;5059187;28;20069;-70
2023/08/24 09:05:53;;;;;;;11.55;8.35;;;24.00;99.90;;;;;;5071935;28;20047;-70
2023/08/24 09:08:20;;;;;;;10.93;8.40;;;24.10;99.90;;;;;;5056846;28;20028;-70
2023/08/24 09:10:46;;;;;;;11.50;8.35;;;24.20;99.90;;;;;;5068294;28;20046;-70
2023/08/24 09:13:12;;;;;;;11.10;7.47;;;24.30;99.90;;;;;;5069208;28;20111;-70
2023/08/24 09:15:38;;;;;;;12.23;8.15;;;24.30;99.90;;;;;;5076151;28;20036;-69
2023/08/24 09:18:04;;;;;;;11.32;7.97;;;24.30;99.90;;;;;;5080086;28;20122;-69
2023/08/24 09:20:30;;;;;;;11.65;8.05;;;24.20;99.90;;;;;;5072225;28;20032;-69
2023/08/24 09:22:57;;;;;;;12.73;8.55;;;24.20;99.90;;;;;;5074052;28;20486;-69
2023/08/24 09:25:26;;;;;;;12.55;7.75;;;24.20;99.90;;;;;;5049732;28;20036;-69
2023/08/24 09:27:58;;;;;;;12.95;8.80;;;24.20;99.90;;;;;;5069068;28;20500;-69
2023/08/24 09:30:31;;;;;;;12.68;8.23;;;24.30;99.90;;;;;;5067785;28;20040;-69
2023/08/24 09:33:10;;;;;;;11.20;7.80;;;24.40;99.90;;;;;;5071408;28;20043;-69
2023/08/24 09:35:37;;;;;;;9.73;7.65;;;24.60;99.90;;;;;;5064445;28;20389;-69
2023/08/24 09:38:19;;;;;;;12.50;7.43;;;24.70;99.90;;;;;;5067383;28;20095;-69
2023/08/24 09:40:48;;;;;;;11.18;7.97;;;24.80;99.90;;;;;;5072251;28;20514;-69
2023/08/24 09:43:14;;;;;;;13.10;7.70;;;24.80;99.90;;;;;;5063967;28;20533;-69
2023/08/24 09:45:53;;;;;;;11.80;8.02;;;24.90;99.90;;;;;;5070222;28;20259;-69
2023/08/24 09:48:20;;;;;;;10.80;8.48;;;24.90;99.90;;;;;;5067262;28;20043;-69
2023/08/24 09:50:47;;;;;;;13.95;7.50;;;24.90;99.90;;;;;;5065550;28;20043;-69
2023/08/24 09:53:21;;;;;;;10.32;7.68;;;24.80;99.90;;;;;;5062358;28;20106;-69
2023/08/24 09:55:58;;;;;;;11.52;7.25;;;24.70;99.90;;;;;;5067201;28;20203;-69
2023/08/24 09:58:25;;;;;;;10.50;7.63;;;24.60;99.90;;;;;;5073112;28;20036;-69
2023/08/24 10:00:51;;;;;;;11.50;7.88;;;24.50;99.90;;;;;;5071977;28;20028;-69
2023/08/24 10:03:25;;;;;;;11.38;8.40;;;24.50;99.90;;;;;;5055292;28;20032;-68
2023/08/24 10:05:53;;;;;;;12.27;7.70;;;24.40;99.90;;;;;;5071605;28;20032;-69
2023/08/24 10:08:32;;;;;;;14.13;8.15;;;24.40;99.90;;;;;;5065811;28;20029;-68
2023/08/24 10:11:00;;;;;;;12.73;8.57;;;24.30;99.90;;;;;;5066393;28;20040;-68
2023/08/24 10:13:47;;;;;;;11.60;8.10;;;24.30;99.90;;;;;;5074572;28;20028;-68
2023/08/24 10:16:14;;;;;;;13.18;8.45;;;24.30;99.90;;;;;;5077508;28;20036;-69
2023/08/24 10:18:40;;;;;;;10.90;7.40;;;24.20;99.90;;;;;;5068236;28;20509;-68
2023/08/24 10:21:08;;;;;;;10.20;8.48;;;24.20;99.90;;;;;;5073936;28;20514;-69
2023/08/24 10:23:35;;;;;;;10.90;8.18;;;24.20;99.90;;;;;;5067265;28;20517;-69
2023/08/24 10:26:03;;;;;;;11.43;7.68;;;24.20;99.90;;;;;;5072473;28;20053;-68
2023/08/24 10:28:29;;;;;;;13.00;8.05;;;24.10;99.90;;;;;;5072090;28;20033;-64
2023/08/24 10:30:59;;;;;;;11.57;8.15;;;24.10;99.90;;;;;;5069171;28;20082;-65
2023/08/24 10:33:26;;;;;;;14.43;8.80;;;24.10;99.90;;;;;;5064050;28;20443;-64
2023/08/24 10:35:52;;;;;;;12.25;8.68;;;24.00;99.90;;;;;;5070896;28;20286;-64
2023/08/24 10:38:25;;;;;;;10.38;8.45;;;24.00;99.90;;;;;;5070875;28;20116;-64
2023/08/24 10:40:51;;;;;;;14.20;8.90;;;24.00;99.90;;;;;;5060277;28;20436;-65
2023/08/24 10:43:17;;;;;;;14.30;8.80;;;24.00;99.90;;;;;;5069174;28;20032;-65
2023/08/24 10:45:59;;;;;;;12.30;8.18;;;24.00;99.90;;;;;;5069772;28;20047;-64
2023/08/24 10:48:28;;;;;;;11.75;8.55;;;24.00;99.90;;;;;;5072425;28;20067;-64
2023/08/24 10:51:18;;;;;;;13.05;9.02;;;24.00;99.90;;;;;;5074405;28;20105;-65
2023/08/24 10:54:11;;;;;;;14.75;8.27;;;24.00;99.90;;;;;;5084692;28;20482;-64
2023/08/24 10:56:39;;;;;;;10.57;7.75;;;24.00;99.90;;;;;;5067287;28;20513;-65
2023/08/24 10:59:16;;;;;;;11.90;8.55;;;24.00;99.90;;;;;;5055524;28;20052;-64
2023/08/24 11:01:52;;;;;;;12.25;8.60;;;24.00;99.90;;;;;;5076763;28;20103;-64
2023/08/24 11:04:18;;;;;;;9.25;7.47;;;24.00;99.90;;;;;;5073136;28;20040;-65
2023/08/24 11:06:58;;;;;;;11.32;8.55;;;24.00;99.90;;;;;;5079006;28;20035;-65
2023/08/24 11:09:24;;;;;;;;;;;24.20;99.90;;;;;;5054189;28;20083;-65
2023/08/24 11:11:57;;;;;;;14.23;8.20;;;24.20;99.90;;;;;;5069561;28;19916;-65
2023/08/24 11:14:26;;;;;;;12.18;8.43;;;24.20;99.90;;;;;;5054928;28;20430;-65
2023/08/24 11:16:53;;;;;;;11.80;8.85;;;24.30;99.90;;;;;;5070994;28;20036;-65
2023/08/24 11:19:18;;;;;;;10.25;8.05;;;24.40;99.90;;;;;;5068428;28;20051;-64
2023/08/24 11:21:45;;;;;;;9.60;7.40;;;24.50;99.90;;;;;;5074118;28;20111;-65
2023/08/24 11:24:14;;;;;;;12.23;7.45;;;24.60;99.90;;;;;;5053610;28;20056;-65
2023/08/24 11:26:48;;;;;;;8.98;7.93;;;24.80;99.90;;;;;;5054594;28;20128;-65
2023/08/24 11:29:15;;;;;;;12.30;8.25;;;24.80;99.90;;;;;;5056034;28;20084;-65
2023/08/24 11:31:41;;;;;;;12.07;7.43;;;24.90;99.90;;;;;;5079576;28;20031;-65
2023/08/24 11:34:07;;;;;;;10.00;7.75;;;25.00;99.90;;;;;;5072903;28;20037;-65
2023/08/24 11:37:02;;;;;;;10.77;8.10;;;25.00;99.90;;;;;;5073392;28;20109;-64
2023/08/24 11:39:31;;;;;;;10.90;7.45;;;24.90;99.90;;;;;;5053925;28;20064;-64
2023/08/24 11:41:57;;;;;;;9.85;7.25;;;24.90;99.90;;;;;;5065056;28;20032;-64
2023/08/24 11:44:23;;;;;;;12.73;7.07;;;24.90;99.90;;;;;;5073087;28;20494;-65
2023/08/24 11:46:49;;;;;;;8.10;6.57;;;24.90;99.90;;;;;;5065046;28;20040;-65
2023/08/24 11:49:14;;;;;;;10.52;7.07;;;24.90;99.90;;;;;;5075025;28;20075;-65
2023/08/24 11:51:40;;;;;;;9.90;6.80;;;25.00;99.90;;;;;;5074081;28;20033;-65
2023/08/24 11:54:06;;;;;;;8.55;6.75;;;25.00;99.90;;;;;;5073507;28;20093;-65
2023/08/24 11:56:31;;;;;;;15.30;6.35;;;25.00;99.90;;;;;;5066369;28;20120;-65
2023/08/24 11:58:57;;;;;;;7.50;6.00;;;25.00;99.90;;;;;;5054003;28;20119;-65
2023/08/24 12:01:24;;;;;;;7.35;6.03;;;25.00;99.90;;;;;;5053749;28;20041;-64
2023/08/24 12:03:50;;;;;;;8.43;6.47;;;25.10;99.90;;;;;;5054861;28;20487;-64
2023/08/24 12:06:16;;;;;;;11.82;6.85;;;25.10;99.90;;;;;;5064128;28;20033;-65
2023/08/24 12:08:46;;;;;;;8.70;6.70;;;25.00;99.90;;;;;;5065424;28;20029;-64
2023/08/24 12:11:17;;;;;;;10.57;6.10;;;25.00;99.90;;;;;;5073652;28;20046;-64
2023/08/24 12:13:47;;;;;;;8.93;6.55;;;25.00;99.90;;;;;;5072422;28;20040;-64
2023/08/24 12:16:13;;;;;;;8.07;6.13;;;24.90;99.90;;;;;;5072877;28;20123;-65
2023/08/24 12:18:53;;;;;;;9.60;5.97;;;24.90;99.90;;;;;;5072170;28;20050;-64
2023/08/24 12:21:20;;;;;;;7.40;6.15;;;24.80;99.90;;;;;;5059417;28;20032;-65
2023/08/24 12:23:55;;;;;;;8.82;6.30;;;24.80;99.90;;;;;;5074631;28;20037;-65
2023/08/24 12:26:21;;;;;;;10.25;7.45;;;24.80;99.90;;;;;;5066556;28;20036;-65
2023/08/24 12:28:53;;;;;;;9.85;6.90;;;24.80;99.90;;;;;;5073303;28;20548;-64
2023/08/24 12:31:19;;;;;;;9.27;6.68;;;24.90;99.90;;;;;;5073876;28;20032;-65
2023/08/24 12:33:57;;;;;;;11.77;7.28;;;25.00;99.90;;;;;;5071917;28;20432;-65
2023/08/24 12:36:22;;;;;;;9.75;7.00;;;25.00;99.90;;;;;;5064716;28;20048;-65
2023/08/24 12:38:48;;;;;;;8.90;7.00;;;25.10;99.90;;;;;;5059956;28;20128;-65
2023/08/24 12:41:13;;;;;;;11.57;7.47;;;25.30;99.90;;;;;;5068916;28;20037;-65